Schubert, Missouri
Current Conditions -  °F | °C
As of 1:53 AM on Friday 19 Dec 2014 (Local Time) from KJEF Reporting Station
Haze Haze  
Wind Chill: 34°   Ceiling: 700
Heat Index: 34°   Visibility: 6mi
Dew Point: 31°   Wind: 3mph
Humidity: 89%   Direction: 90°E
Pressure: 30.28"   Gusts: NA
Location:  38.5003°N, 92.1516°W
Report Text: KJEF 190753Z AUTO 09003KT 6SM BR OVC007 01/M01 A3028 RMK AO2 SLP247 T00111006
Loading
Personal Weather Stations






























Interactive Weather Map New forecast layout! Learn more

10-Day Weather Forecast

Advertisements
Track Severe Weather on mobile